createdAt,value
2017-03-12T00:00:47.681Z,69.78
2017-03-12T00:01:48.938Z,69.78
2017-03-12T00:02:50.165Z,69.59
2017-03-12T00:03:51.510Z,69.59
2017-03-12T00:04:52.755Z,69.87
2017-03-12T00:05:54.003Z,69.78
2017-03-12T00:06:55.267Z,70.21
2017-03-12T00:07:56.564Z,70.59
2017-03-12T00:08:57.839Z,70.21
2017-03-12T00:09:59.113Z,70.5
2017-03-12T00:11:00.357Z,70.4
2017-03-12T00:12:01.607Z,71.17
2017-03-12T00:13:02.867Z,70.88
2017-03-12T00:14:04.231Z,70.69
2017-03-12T00:15:05.488Z,70.98
2017-03-12T00:16:06.733Z,71.45
2017-03-12T00:17:07.953Z,71.17
2017-03-12T00:18:09.259Z,71.17
2017-03-12T00:19:10.506Z,70.88
2017-03-12T00:20:11.750Z,70.69
2017-03-12T00:21:13.019Z,71.45
2017-03-12T00:22:14.265Z,70.88
2017-03-12T00:23:15.586Z,71.83
2017-03-12T00:24:16.970Z,70.98
2017-03-12T00:25:18.207Z,71.64
2017-03-12T00:26:19.478Z,71.83
2017-03-12T00:27:20.763Z,71.26
2017-03-12T00:28:21.987Z,71.92
2017-03-12T00:29:23.232Z,71.36
2017-03-12T00:30:24.467Z,71.45
2017-03-12T00:31:25.697Z,71.26
2017-03-12T00:32:26.943Z,71.17
2017-03-12T00:33:28.190Z,71.92
2017-03-12T00:34:29.609Z,71.73
2017-03-12T00:35:30.955Z,71.73
2017-03-12T00:36:32.203Z,71.55
2017-03-12T00:37:33.467Z,71.64
2017-03-12T00:38:34.718Z,71.92
2017-03-12T00:39:35.954Z,71.92
2017-03-12T00:40:37.204Z,72.21
2017-03-12T00:41:38.450Z,72.3
2017-03-12T00:42:39.684Z,72.02
2017-03-12T00:43:41.079Z,72.21
2017-03-12T00:44:42.343Z,71.92
2017-03-12T00:45:43.579Z,72.02
2017-03-12T00:46:44.822Z,72.49
2017-03-12T00:47:46.055Z,72.21
2017-03-12T00:48:47.326Z,72.4
2017-03-12T00:49:48.572Z,72.88
2017-03-12T00:50:49.795Z,72.4
2017-03-12T00:51:51.107Z,72.4
2017-03-12T00:52:52.320Z,72.21
2017-03-12T00:53:53.555Z,72.4
2017-03-12T00:54:54.935Z,72.4
2017-03-12T00:55:56.178Z,72.59
2017-03-12T00:56:57.425Z,72.59
2017-03-12T00:57:58.666Z,73.07
2017-03-12T00:58:59.887Z,72.49
2017-03-12T01:00:01.194Z,72.88
2017-03-12T01:01:02.429Z,73.25
2017-03-12T01:02:03.779Z,72.59
2017-03-12T01:03:05.012Z,72.88
2017-03-12T01:04:06.247Z,72.88
2017-03-12T01:05:07.517Z,73.44
2017-03-12T01:06:08.769Z,73.16
2017-03-12T01:07:10.023Z,73.35
2017-03-12T01:08:11.523Z,73.16
2017-03-12T01:09:12.714Z,73.16
2017-03-12T01:10:13.965Z,73.44
2017-03-12T01:11:15.206Z,73.31
2017-03-12T01:12:16.498Z,73.22
2017-03-12T01:13:17.722Z,73.82
2017-03-12T01:14:19.043Z,73.79
2017-03-12T01:15:20.339Z,73.88
2017-03-12T01:16:21.605Z,73.63
2017-03-12T01:17:22.825Z,73.6
2017-03-12T01:18:24.081Z,74.07
2017-03-12T01:19:25.368Z,73.44
2017-03-12T01:20:26.621Z,73.69
2017-03-12T01:21:27.886Z,73.6
2017-03-12T01:22:29.121Z,74.07
2017-03-12T01:23:30.372Z,73.79
2017-03-12T01:24:31.610Z,73.69
2017-03-12T01:25:33.066Z,74.16
2017-03-12T01:26:34.303Z,74.26
2017-03-12T01:27:35.532Z,73.88
2017-03-12T01:28:36.774Z,74.35
2017-03-12T01:29:38.007Z,74.35
2017-03-12T01:30:39.252Z,74.26
2017-03-12T01:31:40.493Z,74.64
2017-03-12T01:32:41.804Z,74.73
2017-03-12T01:33:43.172Z,74.92
2017-03-12T01:34:44.539Z,74.73
2017-03-12T01:35:45.751Z,75.02
2017-03-12T01:36:47.002Z,74.64
2017-03-12T01:37:48.245Z,74.92
2017-03-12T01:38:49.487Z,74.92
2017-03-12T01:39:50.729Z,74.64
2017-03-12T01:40:52.010Z,74.83
2017-03-12T01:41:53.249Z,74.73
2017-03-12T01:42:54.499Z,74.73
2017-03-12T01:43:55.807Z,75.11
2017-03-12T01:44:57.137Z,75.11
2017-03-12T01:45:58.469Z,75.31
2017-03-12T01:46:59.604Z,75.11
2017-03-12T01:48:00.866Z,75.31
2017-03-12T01:49:02.092Z,75.4
2017-03-12T01:50:03.315Z,75.4
2017-03-12T01:51:04.559Z,75.49
2017-03-12T01:52:05.842Z,75.68
2017-03-12T01:53:07.090Z,75.87
2017-03-12T01:54:08.341Z,75.68
2017-03-12T01:55:09.597Z,75.78
2017-03-12T01:56:10.826Z,75.49
2017-03-12T01:57:12.077Z,75.4
2017-03-12T01:58:13.323Z,75.87
2017-03-12T01:59:14.585Z,75.87
2017-03-12T02:00:15.832Z,75.87
2017-03-12T02:01:17.092Z,75.96
2017-03-12T02:02:18.317Z,76.34
2017-03-12T02:03:19.558Z,76.63
2017-03-12T02:04:20.992Z,76.54
2017-03-12T02:05:22.278Z,77.16
2017-03-12T02:06:23.522Z,76.78
2017-03-12T02:07:24.753Z,77.16
2017-03-12T02:08:25.998Z,76.59
2017-03-12T02:09:27.243Z,77.06
2017-03-12T02:10:28.466Z,77.16
2017-03-12T02:11:29.709Z,77.35
2017-03-12T02:12:30.955Z,77.54
2017-03-12T02:13:32.197Z,77.35
2017-03-12T02:14:33.434Z,77.35
2017-03-12T02:15:34.669Z,77.54
2017-03-12T02:16:35.931Z,77.54
2017-03-12T02:17:37.180Z,77.58
2017-03-12T02:18:38.497Z,77.67
2017-03-12T02:19:39.676Z,77.01
2017-03-12T02:20:40.938Z,77.06
2017-03-12T02:21:42.182Z,76.73
2017-03-12T02:22:43.419Z,76.78
2017-03-12T02:23:44.697Z,76.78
2017-03-12T02:24:45.924Z,76.78
2017-03-12T02:25:47.189Z,76.97
2017-03-12T02:26:48.439Z,77.35
2017-03-12T02:27:49.696Z,77.64
2017-03-12T02:28:50.903Z,77.35
2017-03-12T02:29:52.191Z,77.45
2017-03-12T02:30:53.461Z,77.64
2017-03-12T02:31:54.700Z,77.73
2017-03-12T02:32:55.931Z,77.83
2017-03-12T02:33:57.170Z,77.73
2017-03-12T02:34:58.407Z,78.3
2017-03-12T02:35:59.667Z,78.3
2017-03-12T02:37:00.946Z,78.39
2017-03-12T02:38:02.197Z,78.11
2017-03-12T02:39:03.444Z,78.39
2017-03-12T02:40:04.696Z,78.49
2017-03-12T02:41:05.915Z,78.39
2017-03-12T02:42:07.177Z,78.2
2017-03-12T02:43:08.425Z,78.67
2017-03-12T02:44:09.684Z,78.96
2017-03-12T02:45:10.979Z,79.06
2017-03-12T02:46:12.230Z,78.96
2017-03-12T02:47:13.477Z,78.67
2017-03-12T02:48:14.708Z,78.77
2017-03-12T02:49:15.981Z,78.87
2017-03-12T02:50:17.346Z,79.06
2017-03-12T02:51:18.595Z,79.25
2017-03-12T02:52:19.807Z,79.25
2017-03-12T02:53:21.046Z,79.15
2017-03-12T02:54:22.278Z,79.34
2017-03-12T02:55:23.525Z,78.96
2017-03-12T02:56:24.873Z,79.44
2017-03-12T02:57:26.023Z,79.06
2017-03-12T02:58:27.320Z,79.15
2017-03-12T02:59:28.566Z,79.39
2017-03-12T03:00:29.795Z,80.06
2017-03-12T03:01:31.026Z,79.82
2017-03-12T03:02:32.288Z,80
2017-03-12T03:03:33.519Z,79.72
2017-03-12T03:04:34.794Z,79.82
2017-03-12T03:05:36.060Z,79.87
2017-03-12T03:06:37.281Z,79.87
2017-03-12T03:07:38.518Z,80.15
2017-03-12T03:08:39.813Z,80.25
2017-03-12T03:09:41.134Z,80.25
2017-03-12T03:10:42.384Z,80.34
2017-03-12T03:11:43.622Z,80.15
2017-03-12T03:12:44.869Z,80.25
2017-03-12T03:13:46.098Z,80.44
2017-03-12T03:14:47.345Z,80.53
2017-03-12T03:15:48.577Z,80.82
2017-03-12T03:16:49.925Z,80.82
2017-03-12T03:17:51.166Z,80.44
2017-03-12T03:18:52.423Z,80.82
2017-03-12T03:19:53.669Z,80.53
2017-03-12T03:20:54.913Z,80.91
2017-03-12T03:21:56.142Z,80.72
2017-03-12T03:22:57.379Z,81.1
2017-03-12T03:23:58.741Z,80.91
2017-03-12T03:24:59.989Z,81.48
2017-03-12T03:26:01.222Z,81.57
2017-03-12T03:27:02.446Z,81.48
2017-03-12T03:28:03.688Z,81.38
2017-03-12T03:29:05.010Z,81.48
2017-03-12T03:30:06.298Z,81.57
2017-03-12T03:31:07.466Z,81.01
2017-03-12T03:32:08.707Z,81.29
2017-03-12T03:33:10.010Z,81.48
2017-03-12T03:34:11.252Z,81.38
2017-03-12T03:35:12.570Z,81.48
2017-03-12T03:36:13.796Z,81.48
2017-03-12T03:37:15.019Z,81.1
2017-03-12T03:38:16.271Z,80.91
2017-03-12T03:39:17.500Z,80.91
2017-03-12T03:40:18.727Z,81.48
2017-03-12T03:41:20.013Z,81.48
2017-03-12T03:42:21.257Z,81.29
2017-03-12T03:43:22.599Z,81.1
2017-03-12T03:44:23.835Z,81.01
2017-03-12T03:45:25.067Z,80.91
2017-03-12T03:46:26.305Z,81.48
2017-03-12T03:47:27.550Z,81.01
2017-03-12T03:48:28.873Z,81.1
2017-03-12T03:49:30.108Z,80.91
2017-03-12T03:50:31.339Z,81.1
2017-03-12T03:51:32.568Z,81.29
2017-03-12T03:52:33.799Z,81.1
2017-03-12T03:53:35.082Z,80.53
2017-03-12T03:54:36.339Z,80.91
2017-03-12T03:55:37.611Z,80.72
2017-03-12T03:56:38.839Z,80.91
2017-03-12T03:57:40.070Z,80.72
2017-03-12T03:58:41.323Z,80.44
2017-03-12T03:59:42.554Z,80.44
2017-03-12T04:00:43.803Z,80.34
2017-03-12T04:01:45.039Z,80.34
2017-03-12T04:02:46.316Z,80.25
2017-03-12T04:03:47.568Z,80.25
2017-03-12T04:04:48.806Z,80.25
2017-03-12T04:05:50.027Z,80.06
2017-03-12T04:06:51.319Z,80.25
2017-03-12T04:07:52.586Z,80.34
2017-03-12T04:08:53.830Z,80.25
2017-03-12T04:09:55.075Z,80.25
2017-03-12T04:10:56.306Z,80.25
2017-03-12T04:11:57.543Z,79.87
2017-03-12T04:12:58.801Z,80.25
2017-03-12T04:14:00.049Z,80.44
2017-03-12T04:15:01.292Z,80.34
2017-03-12T04:16:02.521Z,80.82
2017-03-12T04:17:03.757Z,80.82
2017-03-12T04:18:04.990Z,80.44
2017-03-12T04:19:06.227Z,80.25
2017-03-12T04:20:07.467Z,80.44
2017-03-12T04:21:08.720Z,79.87
2017-03-12T04:22:09.956Z,80.06
2017-03-12T04:23:11.210Z,80.15
2017-03-12T04:24:12.431Z,80.44
2017-03-12T04:25:13.675Z,80.25
2017-03-12T04:26:14.971Z,79.58
2017-03-12T04:27:16.222Z,79.68
2017-03-12T04:28:17.453Z,80.25
2017-03-12T04:29:18.691Z,79.87
2017-03-12T04:30:19.927Z,79.68
2017-03-12T04:31:21.148Z,80.34
2017-03-12T04:32:22.387Z,79.96
2017-03-12T04:33:23.726Z,80.44
2017-03-12T04:34:25.024Z,80.53
2017-03-12T04:35:26.258Z,80.91
2017-03-12T04:36:27.501Z,80.34
2017-03-12T04:37:28.769Z,80.34
2017-03-12T04:38:29.981Z,79.77
2017-03-12T04:39:31.276Z,79.58
2017-03-12T04:40:32.511Z,79.96
2017-03-12T04:41:33.752Z,79.87
2017-03-12T04:42:35.429Z,80.44
2017-03-12T04:43:36.673Z,80.44
2017-03-12T04:44:37.901Z,80.25
2017-03-12T04:45:39.261Z,79.77
2017-03-12T04:46:40.596Z,79.68
2017-03-12T04:47:41.829Z,79.77
2017-03-12T04:48:43.064Z,79.96
2017-03-12T04:49:44.337Z,79.77
2017-03-12T04:50:45.664Z,79.68
2017-03-12T04:51:46.979Z,79.87
2017-03-12T04:52:48.180Z,79.87
2017-03-12T04:53:49.541Z,80.25
2017-03-12T04:54:50.832Z,80.15
2017-03-12T04:55:52.073Z,80.25
2017-03-12T04:56:53.388Z,79.68
2017-03-12T04:57:54.712Z,79.68
2017-03-12T04:58:55.946Z,79.87
2017-03-12T04:59:57.185Z,79.77
2017-03-12T05:00:58.416Z,79.77
2017-03-12T05:01:59.654Z,80.06
2017-03-12T05:03:00.960Z,79.68
2017-03-12T05:04:02.224Z,79.87
2017-03-12T05:05:03.455Z,79.77
2017-03-12T05:06:04.906Z,79.68
2017-03-12T05:07:06.151Z,79.87
2017-03-12T05:08:07.509Z,79.68
2017-03-12T05:09:08.806Z,79.68
2017-03-12T05:10:10.049Z,80.06
2017-03-12T05:11:11.285Z,79.87
2017-03-12T05:12:12.515Z,80.44
2017-03-12T05:13:13.764Z,80.53
2017-03-12T05:14:15.006Z,79.77
2017-03-12T05:15:16.350Z,79.87
2017-03-12T05:16:17.566Z,79.68
2017-03-12T05:17:18.812Z,79.77
2017-03-12T05:18:20.118Z,80.44
2017-03-12T05:19:21.327Z,80.44
2017-03-12T05:20:22.571Z,80.15
2017-03-12T05:21:23.844Z,80.06
2017-03-12T05:22:25.188Z,79.87
2017-03-12T05:23:26.445Z,79.49
2017-03-12T05:24:27.720Z,80.44
2017-03-12T05:25:28.917Z,79.96
2017-03-12T05:26:30.165Z,79.68
2017-03-12T05:27:31.416Z,79.49
2017-03-12T05:28:32.676Z,79.68
2017-03-12T05:29:33.900Z,79.87
2017-03-12T05:30:35.136Z,79.68
2017-03-12T05:31:36.374Z,79.68
2017-03-12T05:32:37.620Z,79.49
2017-03-12T05:33:38.907Z,79.87
2017-03-12T05:34:40.122Z,79.68
2017-03-12T05:35:41.435Z,80.34
2017-03-12T05:36:42.668Z,80.15
2017-03-12T05:37:43.920Z,80.25
2017-03-12T05:38:45.158Z,79.77
2017-03-12T05:39:46.387Z,80.25
2017-03-12T05:40:47.726Z,80.44
2017-03-12T05:41:48.975Z,79.87
2017-03-12T05:42:50.247Z,79.87
2017-03-12T05:43:51.509Z,80.15
2017-03-12T05:44:52.747Z,80.25
2017-03-12T05:45:53.994Z,80.34
2017-03-12T05:46:55.332Z,80.25
2017-03-12T05:47:56.571Z,80.06
2017-03-12T05:48:57.880Z,80.25
2017-03-12T05:49:59.121Z,79.96
2017-03-12T05:51:00.384Z,79.58
2017-03-12T05:52:01.632Z,79.68
2017-03-12T05:53:03.018Z,79.87
2017-03-12T05:54:04.252Z,79.77
2017-03-12T05:55:05.501Z,79.96
2017-03-12T05:56:06.746Z,79.87
2017-03-12T05:57:08.232Z,79.87
2017-03-12T05:58:09.485Z,79.49
2017-03-12T05:59:10.735Z,79.39
2017-03-12T06:00:12.014Z,79.39
2017-03-12T06:01:13.253Z,79.02
2017-03-12T06:02:14.488Z,79.02
2017-03-12T06:03:15.729Z,79.58
2017-03-12T06:04:16.971Z,79.39
2017-03-12T06:05:18.219Z,79.3
2017-03-12T06:06:19.466Z,79.02
2017-03-12T06:07:20.784Z,79.21
2017-03-12T06:08:21.996Z,79.39
2017-03-12T06:09:23.270Z,78.83
2017-03-12T06:10:24.530Z,78.73
2017-03-12T06:11:25.822Z,78.35
2017-03-12T06:12:27.094Z,78.45
2017-03-12T06:13:28.385Z,78.02
2017-03-12T06:14:29.662Z,77.97
2017-03-12T06:15:30.917Z,78.26
2017-03-12T06:16:32.192Z,78.07
2017-03-12T06:17:33.513Z,77.73
2017-03-12T06:18:34.818Z,77.97
2017-03-12T06:19:35.989Z,77.35
2017-03-12T06:20:37.283Z,77.54
2017-03-12T06:21:38.533Z,77.16
2017-03-12T06:22:39.801Z,77.16
2017-03-12T06:23:41.238Z,76.31
2017-03-12T06:24:42.578Z,76.59
2017-03-12T06:25:43.855Z,76.4
2017-03-12T06:26:45.123Z,75.74
2017-03-12T06:27:46.376Z,75.17
2017-03-12T06:28:47.645Z,75.17
2017-03-12T06:29:48.965Z,74.98
2017-03-12T06:30:50.217Z,74.51
2017-03-12T06:31:51.496Z,74.51
2017-03-12T06:32:52.786Z,74.26
2017-03-12T06:33:54.041Z,73.69
2017-03-12T06:34:55.387Z,73.5
2017-03-12T06:35:56.666Z,73.31
2017-03-12T06:36:57.917Z,73.22
2017-03-12T06:37:59.175Z,72.93
2017-03-12T06:39:00.436Z,72.64
2017-03-12T06:40:01.681Z,72.27
2017-03-12T06:41:02.976Z,71.98
2017-03-12T06:42:04.219Z,72.08
2017-03-12T06:43:05.483Z,72.27
2017-03-12T06:44:06.741Z,71.22
2017-03-12T06:45:07.991Z,71.32
2017-03-12T06:46:09.269Z,70.78
2017-03-12T06:47:10.543Z,70.4
2017-03-12T06:48:11.811Z,70.5
2017-03-12T06:49:13.073Z,69.93
2017-03-12T06:50:14.360Z,69.74
2017-03-12T06:51:15.675Z,69.17
2017-03-12T06:52:16.943Z,69.08
2017-03-12T06:53:18.257Z,68.89
2017-03-12T06:54:19.555Z,68.7
2017-03-12T06:55:20.972Z,68.64
2017-03-12T06:56:22.229Z,68.07
2017-03-12T06:57:23.521Z,68.07
2017-03-12T06:58:24.844Z,67.4
2017-03-12T06:59:26.112Z,67.21
2017-03-12T07:00:27.524Z,67.21
2017-03-12T07:01:28.817Z,67.21
2017-03-12T07:02:30.105Z,66.64
2017-03-12T07:03:31.385Z,66.27
2017-03-12T07:04:32.670Z,65.73
2017-03-12T07:05:33.981Z,64.97
2017-03-12T07:06:35.263Z,64.11
2017-03-12T07:07:36.581Z,63.35
2017-03-12T07:08:37.815Z,63.29
2017-03-12T07:09:39.065Z,62.62
2017-03-12T07:10:40.334Z,61.29
2017-03-12T07:11:41.621Z,60.16
2017-03-12T07:12:42.901Z,60.28
2017-03-12T07:13:44.138Z,59.05
2017-03-12T07:14:45.427Z,57.45
2017-03-12T07:15:46.708Z,56.88
2017-03-12T07:16:48.009Z,56.63
2017-03-12T07:17:49.272Z,54.91
2017-03-12T07:18:50.723Z,54.25
2017-03-12T07:19:52.008Z,54.27
2017-03-12T07:20:53.314Z,52.56
2017-03-12T07:21:54.588Z,52.28
2017-03-12T07:22:55.937Z,51.35
2017-03-12T07:23:57.205Z,50.59
2017-03-12T07:24:58.465Z,50.78
2017-03-12T07:25:59.798Z,49.92
2017-03-12T07:27:01.026Z,50.68
2017-03-12T07:28:02.319Z,49.82
2017-03-12T07:29:03.590Z,49.56
2017-03-12T07:30:04.864Z,49.28
2017-03-12T07:31:06.120Z,48.71
2017-03-12T07:32:07.390Z,48.42
2017-03-12T07:33:08.673Z,48.32
2017-03-12T07:34:09.939Z,47.56
2017-03-12T07:35:11.373Z,47.11
2017-03-12T07:36:12.679Z,46.82
2017-03-12T07:37:13.925Z,46.15
2017-03-12T07:38:15.211Z,45.68
2017-03-12T07:39:16.465Z,45.61
2017-03-12T07:40:17.774Z,45.01
2017-03-12T07:41:19.118Z,45.97
2017-03-12T07:42:20.398Z,45.89
2017-03-12T07:43:21.754Z,44.74
2017-03-12T07:44:23.284Z,43.98
2017-03-12T07:45:25.427Z,43.79
2017-03-12T07:46:30.434Z,43.82
2017-03-12T07:48:49.848Z,42.96
2017-03-12T07:49:54.961Z,43.05
2017-03-12T07:57:34.345Z,40.2
2017-03-12T07:58:59.781Z,40.49
2017-03-12T08:09:40.749Z,37.59
2017-03-12T08:50:57.757Z,32.84
2017-03-12T08:51:58.902Z,34.16
2017-03-12T08:53:00.305Z,34.06
2017-03-12T08:54:01.601Z,34.36
2017-03-12T08:55:02.899Z,34.28
2017-03-12T08:56:04.212Z,33.43
2017-03-12T08:57:05.463Z,32.28
2017-03-12T08:58:06.768Z,32.38
2017-03-12T08:59:08.066Z,32.95
2017-03-12T09:00:09.547Z,32.38
2017-03-12T09:01:10.949Z,32.1
2017-03-12T09:02:12.174Z,31.82
2017-03-12T09:03:13.503Z,30.89
2017-03-12T09:04:14.754Z,29.93
2017-03-12T09:05:16.310Z,29.45
2017-03-12T09:06:18.098Z,29.26
2017-03-12T09:07:19.487Z,28.89
2017-03-12T09:08:20.869Z,28.89
2017-03-12T09:09:22.175Z,28.42
2017-03-12T09:10:23.455Z,27.76
2017-03-12T09:11:24.720Z,27.19
2017-03-12T09:12:26.122Z,27.08
2017-03-12T09:13:27.427Z,27.47
2017-03-12T09:14:28.690Z,27.56
2017-03-12T09:15:30.058Z,27.93
2017-03-12T09:16:31.386Z,27.93
2017-03-12T09:17:32.662Z,28.12
2017-03-12T09:18:33.960Z,28.68
2017-03-12T09:19:35.313Z,28.88
2017-03-12T09:20:36.603Z,28.79
2017-03-12T09:21:37.957Z,27.83
2017-03-12T09:22:39.360Z,28.14
2017-03-12T09:23:40.655Z,27.75
2017-03-12T09:24:42.026Z,26.98
2017-03-12T09:25:43.727Z,26.24
2017-03-12T09:26:45.895Z,25.38
2017-03-12T09:27:47.954Z,25.57
2017-03-12T09:28:49.851Z,25.09
2017-03-12T09:29:52.629Z,25.57
2017-03-12T09:30:54.324Z,24.9
2017-03-12T09:31:56.252Z,25.09
2017-03-12T09:32:57.754Z,25.39
2017-03-12T09:33:59.094Z,24.98
2017-03-12T09:35:00.501Z,25.84
2017-03-12T09:36:01.811Z,25.94
2017-03-12T09:37:03.135Z,26.31
2017-03-12T09:38:04.502Z,26.32
2017-03-12T09:39:05.865Z,25.94
2017-03-12T09:40:07.334Z,26.03
2017-03-12T09:41:08.767Z,26.04
2017-03-12T09:42:10.141Z,26.04
2017-03-12T09:43:11.582Z,25.57
2017-03-12T09:44:13.061Z,24.14
2017-03-12T09:45:14.526Z,23.67
2017-03-12T09:46:16.042Z,23.96
2017-03-12T09:47:17.728Z,23.77
2017-03-12T09:48:19.485Z,23.46
2017-03-12T09:49:20.821Z,23.37
2017-03-12T09:50:22.417Z,24.15
2017-03-12T09:51:24.069Z,23.58
2017-03-12T09:52:26.747Z,22.83
2017-03-12T10:25:10.329Z,20.98
2017-03-12T11:01:55.552Z,28.48
2017-03-12T11:02:56.823Z,28.86
2017-03-12T11:03:58.121Z,29.42
2017-03-12T11:04:59.353Z,29.79
2017-03-12T11:06:00.579Z,30.84
2017-03-12T11:07:01.889Z,30.84
2017-03-12T11:08:03.165Z,31.23
2017-03-12T11:09:04.486Z,31.88
2017-03-12T11:10:05.759Z,32.17
2017-03-12T11:11:07.051Z,32.63
2017-03-12T11:12:08.326Z,32.92
2017-03-12T11:13:09.660Z,32.92
2017-03-12T11:14:10.879Z,33.38
2017-03-12T11:15:12.191Z,34.05
2017-03-12T11:16:13.517Z,34.24
2017-03-12T11:17:14.909Z,34.24
2017-03-12T11:18:16.150Z,33.57
2017-03-12T11:19:17.439Z,33.75
2017-03-12T11:20:18.707Z,33.46
2017-03-12T11:21:20.004Z,34.51
2017-03-12T11:22:21.310Z,34.22
2017-03-12T11:23:22.534Z,34.59
2017-03-12T11:24:23.797Z,34.78
2017-03-12T11:25:25.095Z,35.35
2017-03-12T11:26:26.361Z,36.02
2017-03-12T11:27:27.635Z,36.12
2017-03-12T11:28:29.022Z,36.23
2017-03-12T11:29:30.274Z,34.89
2017-03-12T11:30:31.534Z,34.59
2017-03-12T11:31:32.782Z,34.78
2017-03-12T11:32:34.071Z,34.3
2017-03-12T11:33:35.483Z,35.33
2017-03-12T11:34:36.790Z,35.82
2017-03-12T11:35:38.038Z,36
2017-03-12T11:36:39.316Z,36.39
2017-03-12T11:37:40.584Z,36.98
2017-03-12T11:38:41.923Z,37.05
2017-03-12T11:39:43.317Z,36.48
2017-03-12T11:40:44.598Z,36.12
2017-03-12T11:41:45.921Z,36.1
2017-03-12T11:42:47.179Z,36.48
2017-03-12T11:43:48.418Z,36.39
2017-03-12T11:44:49.677Z,36.48
2017-03-12T11:45:51.084Z,36.77
2017-03-12T11:46:52.334Z,37.44
2017-03-12T11:47:53.589Z,36.87
2017-03-12T11:48:54.848Z,37.05
2017-03-12T11:49:56.097Z,37.24
2017-03-12T11:50:57.549Z,37.53
2017-03-12T11:51:58.802Z,37.34
2017-03-12T11:53:00.049Z,36.87
2017-03-12T11:54:01.377Z,37.15
2017-03-12T11:55:02.641Z,36.39
2017-03-12T11:56:04.004Z,36.29
2017-03-12T11:57:05.253Z,36.1
2017-03-12T11:58:06.490Z,36.48
2017-03-12T11:59:07.767Z,37.15
2017-03-12T12:00:08.987Z,37.61
2017-03-12T12:01:10.246Z,37.61
2017-03-12T12:02:11.539Z,38.18
2017-03-12T12:03:12.890Z,38.09
2017-03-12T12:04:14.125Z,37.9
2017-03-12T12:05:15.378Z,37.92
2017-03-12T12:06:16.643Z,37.73
2017-03-12T12:07:17.921Z,38.01
2017-03-12T12:08:19.192Z,38.01
2017-03-12T12:09:20.472Z,38.2
2017-03-12T12:10:21.692Z,38.01
2017-03-12T12:11:22.928Z,37.82
2017-03-12T12:12:24.240Z,37.92
2017-03-12T12:13:25.540Z,37.92
2017-03-12T12:14:26.832Z,38.01
2017-03-12T12:15:28.107Z,37.73
2017-03-12T12:16:29.349Z,38.01
2017-03-12T12:17:30.587Z,37.92
2017-03-12T12:18:31.937Z,37.92
2017-03-12T12:19:33.288Z,37.63
2017-03-12T12:20:34.528Z,37.34
2017-03-12T12:21:35.788Z,36.68
2017-03-12T12:22:37.069Z,36.77
2017-03-12T12:23:38.328Z,36.87
2017-03-12T12:24:39.601Z,37.15
2017-03-12T12:25:40.859Z,37.15
2017-03-12T12:26:42.138Z,37.15
2017-03-12T12:27:43.383Z,37.44
2017-03-12T12:28:44.633Z,37.44
2017-03-12T12:29:45.888Z,36.96
2017-03-12T12:30:47.156Z,36.29
2017-03-12T12:31:48.386Z,36.68
2017-03-12T12:32:49.662Z,36.98
2017-03-12T12:33:50.962Z,36.79
2017-03-12T12:34:52.210Z,36.6
2017-03-12T12:35:53.452Z,36.98
2017-03-12T12:36:54.693Z,36.48
2017-03-12T12:37:55.972Z,36.48
2017-03-12T12:38:57.322Z,36.96
2017-03-12T12:39:58.571Z,36.96
2017-03-12T12:40:59.835Z,37.24
2017-03-12T12:42:01.098Z,36.19
2017-03-12T12:43:02.372Z,36.29
2017-03-12T12:44:03.636Z,36.69
2017-03-12T12:45:04.869Z,36.21
2017-03-12T12:46:06.140Z,36.5
2017-03-12T12:47:07.388Z,36.31
2017-03-12T12:48:08.651Z,36.21
2017-03-12T12:49:09.953Z,36.12
2017-03-12T12:50:11.360Z,36.21
2017-03-12T12:51:12.613Z,36.12
2017-03-12T12:52:13.845Z,35.45
2017-03-12T12:53:15.114Z,36.31
2017-03-12T12:54:16.395Z,35.45
2017-03-12T12:55:17.623Z,35.55
2017-03-12T12:56:18.898Z,35.24
2017-03-12T12:57:20.165Z,35.26
2017-03-12T12:58:21.434Z,35.43
2017-03-12T12:59:22.672Z,35.53
2017-03-12T13:00:23.983Z,36
2017-03-12T13:01:25.233Z,35.62
2017-03-12T13:02:26.520Z,35.14
2017-03-12T13:03:27.785Z,34.86
2017-03-12T13:04:29.046Z,33.91
2017-03-12T13:05:30.287Z,34.38
2017-03-12T13:06:31.546Z,34.09
2017-03-12T13:07:32.818Z,34.88
2017-03-12T13:08:34.074Z,34.59
2017-03-12T13:09:35.312Z,34.69
2017-03-12T13:10:36.561Z,34.78
2017-03-12T13:11:37.809Z,34.88
2017-03-12T13:12:39.060Z,35.06
2017-03-12T13:13:40.322Z,34.88
2017-03-12T13:14:41.608Z,34.78
2017-03-12T13:15:42.835Z,34.97
2017-03-12T13:16:44.239Z,34.78
2017-03-12T13:17:45.465Z,35.35
2017-03-12T13:18:46.719Z,34.78
2017-03-12T13:19:48.019Z,34.97
2017-03-12T13:20:49.276Z,34.69
2017-03-12T13:21:50.531Z,35.06
2017-03-12T13:22:51.794Z,34.49
2017-03-12T13:23:53.065Z,34.49
2017-03-12T13:24:54.310Z,34.59
2017-03-12T13:25:55.559Z,34.97
2017-03-12T13:26:57.003Z,34.49
2017-03-12T13:27:58.247Z,34.77
2017-03-12T13:28:59.495Z,35.05
2017-03-12T13:30:00.739Z,35.26
2017-03-12T13:31:02.095Z,35.05
2017-03-12T13:32:03.308Z,35.24
2017-03-12T13:33:04.587Z,34.77
2017-03-12T13:34:05.842Z,34.95
2017-03-12T13:35:07.167Z,35.05
2017-03-12T13:36:08.395Z,35.05
2017-03-12T13:37:09.642Z,35.26
2017-03-12T13:38:10.908Z,35.24
2017-03-12T13:39:12.172Z,35.05
2017-03-12T13:40:13.530Z,35.24
2017-03-12T13:41:14.771Z,35.05
2017-03-12T13:42:16.040Z,34.67
2017-03-12T13:43:17.256Z,35.05
2017-03-12T13:44:18.527Z,35.24
2017-03-12T13:45:20.065Z,35.53
2017-03-12T13:46:21.394Z,35.14
2017-03-12T13:47:22.628Z,34.86
2017-03-12T13:48:23.905Z,34.77
2017-03-12T13:49:25.126Z,34.86
2017-03-12T13:50:26.400Z,34.67
2017-03-12T13:51:27.682Z,34.38
2017-03-12T13:52:29.016Z,34.77
2017-03-12T13:53:30.272Z,34.28
2017-03-12T13:54:31.499Z,34.86
2017-03-12T13:55:32.759Z,34.57
2017-03-12T13:56:33.977Z,34.09
2017-03-12T13:57:35.247Z,34.09
2017-03-12T13:58:36.494Z,34.09
2017-03-12T13:59:37.771Z,34.09
2017-03-12T14:00:39.047Z,34.28
2017-03-12T14:01:40.298Z,34.38
2017-03-12T14:02:41.691Z,34.09
2017-03-12T14:03:42.841Z,34.28
2017-03-12T14:04:44.098Z,33.81
2017-03-12T14:05:45.354Z,33.62
2017-03-12T14:06:46.590Z,33.42
2017-03-12T14:07:47.934Z,33.04
2017-03-12T14:08:49.166Z,33.33
2017-03-12T14:09:50.425Z,33.42
2017-03-12T14:10:51.754Z,32.95
2017-03-12T14:11:52.993Z,32.95
2017-03-12T14:12:54.229Z,32.57
2017-03-12T14:13:55.467Z,32.86
2017-03-12T14:14:56.717Z,32.95
2017-03-12T14:15:58.018Z,33.04
2017-03-12T14:16:59.353Z,32.95
2017-03-12T14:18:00.562Z,32.95
2017-03-12T14:19:01.793Z,33.33
2017-03-12T14:20:03.066Z,32.86
2017-03-12T14:21:04.354Z,32.66
2017-03-12T14:22:05.598Z,32.86
2017-03-12T14:23:06.856Z,32.37
2017-03-12T14:24:08.103Z,32.47
2017-03-12T14:25:09.342Z,32.57
2017-03-12T14:26:10.613Z,32.47
2017-03-12T14:27:11.871Z,32.86
2017-03-12T14:28:13.142Z,32.95
2017-03-12T14:29:14.369Z,32.76
2017-03-12T14:30:15.647Z,33.04
2017-03-12T14:31:16.893Z,33.14
2017-03-12T14:32:18.139Z,32.95
2017-03-12T14:33:19.414Z,32.95
2017-03-12T14:34:20.646Z,33.14
2017-03-12T14:35:21.955Z,33.23
2017-03-12T14:36:23.217Z,33.62
2017-03-12T14:37:24.503Z,33.42
2017-03-12T14:38:25.709Z,33.64
2017-03-12T14:39:26.961Z,33.91
2017-03-12T14:40:28.257Z,33.81
2017-03-12T14:41:29.526Z,33.81
2017-03-12T14:42:30.779Z,33.81
2017-03-12T14:43:32.170Z,33.54
2017-03-12T14:44:33.415Z,33.15
2017-03-12T14:45:34.685Z,33.35
2017-03-12T14:46:35.926Z,32.76
2017-03-12T14:47:37.164Z,32.76
2017-03-12T14:48:38.410Z,32.76
2017-03-12T14:49:39.678Z,32.95
2017-03-12T14:50:41.033Z,32.95
2017-03-12T14:51:42.281Z,32.87
2017-03-12T14:52:43.521Z,32.86
2017-03-12T14:53:44.791Z,32.95
2017-03-12T14:54:46.073Z,32.95
2017-03-12T14:55:47.466Z,33.23
2017-03-12T14:56:48.713Z,33.04
2017-03-12T14:57:49.955Z,33.04
2017-03-12T14:58:51.207Z,32.95
2017-03-12T14:59:52.522Z,32.86
2017-03-12T15:00:53.775Z,33.04
2017-03-12T15:01:55.137Z,33.04
2017-03-12T15:02:56.405Z,32.95
2017-03-12T15:03:57.658Z,33.14
2017-03-12T15:04:58.915Z,33.42
2017-03-12T15:06:00.164Z,33.14
2017-03-12T15:07:01.453Z,33.23
2017-03-12T15:08:02.699Z,32.86
2017-03-12T15:09:03.947Z,32.47
2017-03-12T15:10:05.197Z,32.09
2017-03-12T15:11:06.454Z,32.18
2017-03-12T15:12:07.700Z,32.18
2017-03-12T15:13:09.059Z,32.09
2017-03-12T15:14:10.200Z,32.28
2017-03-12T15:15:11.446Z,32.47
2017-03-12T15:16:12.690Z,32.66
2017-03-12T15:17:13.954Z,32.28